EST,Max TemperatureF,Mean TemperatureF,Min TemperatureF,Max Dew PointF,MeanDew PointF,Min DewpointF,Max Humidity, Mean Humidity, Min Humidity, Max Sea Level PressureIn, Mean Sea Level PressureIn, Min Sea Level PressureIn, Max VisibilityMiles, Mean VisibilityMiles, Min VisibilityMiles, Max Wind SpeedMPH, Mean Wind SpeedMPH, Max Gust SpeedMPH,PrecipitationIn, CloudCover, Events, WindDirDegrees
2012-11-1,55,45,35,32,31,29,78,58,40,29.79,29.72,29.68,10,10,10,14,5,20,0.00,5,,252
2012-11-2,54,42,31,33,27,22,80,54,29,29.97,29.84,29.77,10,10,10,15,4,20,0.00,3,,304
2012-11-3,51,44,38,32,30,28,72,57,43,30.12,30.05,29.96,10,10,10,13,4,17,0.00,6,,343
2012-11-4,52,45,37,33,31,27,70,58,45,30.11,30.06,29.99,10,10,10,9,2,,0.00,5,,35
2012-11-5,50,38,25,30,26,23,89,66,39,30.16,30.10,30.05,10,10,4,10,2,,0.00,0,,24
2012-11-6,45,34,22,31,26,19,90,72,47,30.19,30.09,29.99,10,10,5,5,0,,0.00,0,,172
2012-11-7,44,39,35,30,28,26,79,64,51,29.98,29.94,29.89,10,10,10,12,5,,0.00,8,,20
2012-11-8,58,42,28,30,21,9,88,51,15,30.14,30.03,29.96,10,10,7,16,2,21,0.00,1,,346
2012-11-9,59,42,26,34,29,21,89,64,35,30.25,30.20,30.14,10,10,7,5,0,,0.00,0,,130
2012-11-10,72,50,28,35,30,22,90,58,16,30.37,30.30,30.23,10,10,5,7,1,,0.00,0,,183
2012-11-11,75,54,32,42,33,26,90,53,16,30.45,30.40,30.35,10,10,10,14,3,20,0.00,0,,181
2012-11-12,67,57,47,59,52,38,92,79,64,30.40,30.28,30.14,10,9,4,17,5,23,0.46,4,Rain,185
2012-11-13,50,42,33,48,32,25,93,65,37,30.49,30.37,30.23,10,10,5,12,6,16,0.12,3,Rain,8
2012-11-14,45,34,24,29,26,22,89,71,50,30.55,30.48,30.43,10,10,7,8,3,,0.00,0,,22
2012-11-15,47,36,26,34,30,24,92,78,57,30.44,30.35,30.28,10,8,4,5,0,,0.00,1,,39
2012-11-16,53,40,26,34,29,25,95,75,36,30.45,30.35,30.30,10,8,0,15,1,22,0.00,0,Fog,42
2012-11-17,54,38,23,32,26,20,91,69,31,30.59,30.54,30.46,10,9,2,9,2,,0.00,0,,27
2012-11-18,53,42,31,37,33,27,87,66,46,30.59,30.54,30.49,10,10,10,8,2,,0.00,4,,14
2012-11-19,51,40,30,38,35,29,94,74,58,30.49,30.37,30.25,10,10,7,8,3,,0.00,4,,356
2012-11-20,51,40,30,39,34,28,95,82,63,30.23,30.16,30.08,10,7,3,4,0,,0.00,1,,110
2012-11-21,56,42,28,43,32,27,96,81,45,30.25,30.20,30.15,10,5,0,9,1,,0.00,4,Fog,60
2012-11-22,59,42,24,35,28,21,92,71,31,30.30,30.23,30.15,10,8,4,4,0,,0.00,0,,90
2012-11-23,67,45,24,42,30,21,90,59,32,30.15,29.96,29.81,10,10,10,20,4,26,0.00,2,,241
2012-11-24,42,35,27,25,17,14,63,48,33,30.09,30.00,29.90,10,10,10,15,9,25,0.00,2,,297
2012-11-25,49,36,24,21,17,14,71,47,25,30.08,30.00,29.91,10,10,10,15,5,20,0.00,0,,200
2012-11-26,58,42,26,40,26,18,84,55,27,30.19,30.12,29.99,10,10,10,9,1,,0.00,2,Rain,181
2012-11-27,45,38,32,40,36,32,96,89,81,30.25,30.20,30.13,10,6,2,12,4,,0.04,7,Rain,21
2012-11-28,49,38,28,35,26,17,96,64,29,30.37,30.29,30.23,10,8,0,10,2,17,0.00,3,Fog,292
2012-11-29,51,35,19,27,21,16,87,61,27,30.45,30.37,30.32,10,10,10,7,1,,0.00,0,,193
2012-11-30,58,41,24,30,25,19,85,63,29,30.37,30.31,30.26,10,10,10,7,1,,0.00,1,,190